Time;durP1;ratioP1;P1;durP2;ratioP2;P2;SDS_P1;SDS_P2;PMS_P1;PMS_P2;Temp;Humidity;BMP_temperature;BMP_pressure;BME280_temperature;BME280_humidity;BME280_pressure;Samples;Min_cycle;Max_cycle;Signal;HPM_P1;HPM_P2
2023/09/29 00:00:51;;;;;;;;;;;;;;;;;;4987436;28;89468;-71
2023/09/29 00:03:17;;;;;;;;;;;;;;;;;;4987792;28;90112;-74
2023/09/29 00:05:45;;;;;;;;;;;;;;;;;;4987706;28;89928;-73
2023/09/29 00:08:15;;;;;;;;;;;;;;;;;;4987529;28;89131;-72
2023/09/29 00:10:41;;;;;;;;;;;;;;;;;;4987745;28;90153;-75
2023/09/29 00:13:06;;;;;;;;;;;;;;;;;;4985441;28;89466;-67
2023/09/29 00:15:33;;;;;;;;;;;;;;;;;;4971471;28;90791;-67
2023/09/29 00:17:58;;;;;;;;;;;;;;;;;;4980968;28;90261;-68
2023/09/29 00:20:24;;;;;;;;;;;;;;;;;;4987724;28;90620;-74
2023/09/29 00:22:53;;;;;;;;;;;;;;;;;;4975441;28;89581;-75
2023/09/29 00:25:18;;;;;;;;;;;;;;;;;;4973390;28;90184;-68
2023/09/29 00:27:44;;;;;;;;;;;;;;;;;;4967843;28;90524;-65
2023/09/29 00:30:12;;;;;;;;;;;;;;;;;;4979747;28;89845;-67
2023/09/29 00:32:45;;;;;;;;;;;;;;;;;;4987450;28;89040;-68
2023/09/29 00:35:10;;;;;;;;;;;;;;;;;;4985860;28;90865;-66
2023/09/29 00:37:35;;;;;;;;;;;;;;;;;;4987401;28;89324;-67
2023/09/29 00:40:00;;;;;;;;;;;;;;;;;;4990152;28;89872;-67
2023/09/29 00:42:26;;;;;;;;;;;;;;;;;;4985287;28;90274;-69
2023/09/29 00:44:51;;;;;;;;;;;;;;;;;;4987099;28;89298;-74
2023/09/29 00:47:16;;;;;;;;;;;;;;;;;;4986596;28;90503;-74
2023/09/29 00:49:42;;;;;;;;;;;;;;;;;;4984709;28;90210;-74
2023/09/29 00:52:08;;;;;;;;;;;;;;;;;;4967482;28;89556;-74
2023/09/29 00:54:34;;;;;;;;;;;;;;;;;;4967772;28;89585;-73
2023/09/29 00:57:00;;;;;;;;;;;;;;;;;;4978845;28;90872;-74
2023/09/29 00:59:31;;;;;;;;;;;;;;;;;;4985605;28;90073;-71
2023/09/29 01:01:56;;;;;;;;;;;;;;;;;;4970649;28;90800;-66
2023/09/29 01:04:23;;;;;;;;;;;;;;;;;;4987649;28;89391;-66
2023/09/29 01:06:49;;;;;;;;;;;;;;;;;;4986950;28;90438;-67
2023/09/29 01:09:14;;;;;;;;;;;;;;;;;;4986893;28;89190;-70
2023/09/29 01:11:42;;;;;;;;;;;;;;;;;;4986883;28;88955;-69
2023/09/29 01:14:08;;;;;;;;;;;;;;;;;;4975452;28;91113;-66
2023/09/29 01:16:33;;;;;;;;;;;;;;;;;;4966552;28;90219;-66
2023/09/29 01:18:58;;;;;;;;;;;;;;;;;;4966599;28;89090;-66
2023/09/29 01:21:23;;;;;;;;;;;;;;;;;;4966332;28;89511;-66
2023/09/29 01:23:49;;;;;;;;;;;;;;;;;;4969648;28;89242;-70
2023/09/29 01:26:14;;;;;;;;;;;;;;;;;;4969678;28;89518;-66
2023/09/29 01:28:39;;;;;;;;;;;;;;;;;;4969875;28;89208;-65
2023/09/29 01:31:06;;;;;;;;;;;;;;;;;;4984203;28;89124;-72
2023/09/29 01:33:32;;;;;;;;;;;;;;;;;;4986011;28;89486;-71
2023/09/29 01:35:57;;;;;;;;;;;;;;;;;;4986148;28;90420;-74
2023/09/29 01:38:23;;;;;;;;;;;;;;;;;;4986502;28;89568;-73
2023/09/29 01:40:48;;;;;;;;;;;;;;;;;;4986507;28;89600;-72
2023/09/29 01:43:16;;;;;;;;;;;;;;;;;;4986766;28;89202;-73
2023/09/29 01:45:41;;;;;;;;;;;;;;;;;;4988773;28;89589;-73
2023/09/29 01:48:07;;;;;;;;;;;;;;;;;;4986788;28;89444;-74
2023/09/29 01:50:32;;;;;;;;;;;;;;;;;;4986708;28;89686;-72
2023/09/29 01:52:58;;;;;;;;;;;;;;;;;;4986343;28;89292;-75
2023/09/29 01:55:24;;;;;;;;;;;;;;;;;;4985148;28;90079;-73
2023/09/29 01:57:50;;;;;;;;;;;;;;;;;;4986665;28;88959;-72
2023/09/29 02:00:19;;;;;;;;;;;;;;;;;;4985193;28;89567;-75
2023/09/29 02:02:48;;;;;;;;;;;;;;;;;;4986232;28;89326;-74
2023/09/29 02:05:15;;;;;;;;;;;;;;;;;;4985951;28;89705;-74
2023/09/29 02:07:41;;;;;;;;;;;;;;;;;;4988505;28;89620;-73
2023/09/29 02:10:09;;;;;;;;;;;;;;;;;;4985866;28;89391;-69
2023/09/29 02:12:38;;;;;;;;;;;;;;;;;;4986526;28;89590;-74
2023/09/29 02:15:06;;;;;;;;;;;;;;;;;;4986424;28;89769;-73
2023/09/29 02:17:36;;;;;;;;;;;;;;;;;;4986201;28;89080;-73
2023/09/29 02:20:17;;;;;;;;;;;;;;;;;;4985862;28;90585;-74
2023/09/29 02:22:43;;;;;;;;;;;;;;;;;;4986237;28;89922;-75
2023/09/29 02:25:10;;;;;;;;;;;;;;;;;;4986043;28;89582;-72
2023/09/29 02:27:36;;;;;;;;;;;;;;;;;;4988717;28;89653;-74
2023/09/29 02:30:02;;;;;;;;;;;;;;;;;;4985584;28;89508;-75
2023/09/29 02:32:27;;;;;;;;;;;;;;;;;;4985756;28;89526;-67
2023/09/29 02:34:55;;;;;;;;;;;;;;;;;;4985468;28;89187;-67
2023/09/29 02:37:21;;;;;;;;;;;;;;;;;;4986165;28;89012;-72
2023/09/29 02:39:46;;;;;;;;;;;;;;;;;;4985945;28;90769;-74
2023/09/29 02:42:11;;;;;;;;;;;;;;;;;;4985467;28;89735;-70
2023/09/29 02:44:36;;;;;;;;;;;;;;;;;;4985874;28;89051;-73
2023/09/29 02:47:02;;;;;;;;;;;;;;;;;;4985561;28;89506;-70
2023/09/29 02:49:30;;;;;;;;;;;;;;;;;;4988438;28;90279;-74
2023/09/29 02:51:55;;;;;;;;;;;;;;;;;;4985653;28;90593;-73
2023/09/29 02:54:20;;;;;;;;;;;;;;;;;;4985219;28;89935;-74
2023/09/29 02:56:45;;;;;;;;;;;;;;;;;;4984061;28;89637;-71
2023/09/29 02:59:12;;;;;;;;;;;;;;;;;;4985294;28;89533;-73
2023/09/29 03:01:37;;;;;;;;;;;;;;;;;;4985862;28;90518;-74
2023/09/29 03:04:03;;;;;;;;;;;;;;;;;;4985215;28;89097;-74
2023/09/29 03:06:28;;;;;;;;;;;;;;;;;;4985871;28;90722;-75
2023/09/29 03:08:56;;;;;;;;;;;;;;;;;;4984788;28;89707;-74
2023/09/29 03:11:21;;;;;;;;;;;;;;;;;;4988016;28;90330;-73
2023/09/29 03:13:47;;;;;;;;;;;;;;;;;;4988595;28;90613;-68
2023/09/29 03:16:12;;;;;;;;;;;;;;;;;;4988534;28;89456;-73
2023/09/29 03:18:38;;;;;;;;;;;;;;;;;;4988701;28;89602;-72
2023/09/29 03:21:09;;;;;;;;;;;;;;;;;;4988714;28;89667;-67
2023/09/29 03:23:36;;;;;;;;;;;;;;;;;;4987966;28;89640;-68
2023/09/29 03:26:02;;;;;;;;;;;;;;;;;;4988348;28;89499;-66
2023/09/29 03:28:27;;;;;;;;;;;;;;;;;;4988113;28;90291;-67
2023/09/29 03:30:53;;;;;;;;;;;;;;;;;;4988010;28;89259;-67
2023/09/29 03:33:18;;;;;;;;;;;;;;;;;;4989986;28;90663;-66
2023/09/29 03:35:43;;;;;;;;;;;;;;;;;;4987769;28;89508;-65
2023/09/29 03:38:09;;;;;;;;;;;;;;;;;;4974504;28;89619;-66
2023/09/29 03:40:34;;;;;;;;;;;;;;;;;;4973048;28;89680;-74
2023/09/29 03:42:59;;;;;;;;;;;;;;;;;;4988713;28;89695;-74
2023/09/29 03:45:26;;;;;;;;;;;;;;;;;;4988523;28;89580;-75
2023/09/29 03:47:51;;;;;;;;;;;;;;;;;;4982309;28;90431;-74
2023/09/29 03:50:16;;;;;;;;;;;;;;;;;;4988648;28;90465;-74
2023/09/29 03:52:42;;;;;;;;;;;;;;;;;;4987703;28;89429;-75
2023/09/29 03:55:09;;;;;;;;;;;;;;;;;;4991264;28;90251;-73
2023/09/29 03:57:36;;;;;;;;;;;;;;;;;;4987462;28;89929;-74
2023/09/29 04:00:01;;;;;;;;;;;;;;;;;;4987836;28;89092;-74
2023/09/29 04:02:26;;;;;;;;;;;;;;;;;;4978769;28;90013;-75
2023/09/29 04:04:51;;;;;;;;;;;;;;;;;;4967826;28;89997;-75
2023/09/29 04:07:16;;;;;;;;;;;;;;;;;;4968035;28;90142;-75
2023/09/29 04:09:42;;;;;;;;;;;;;;;;;;4968118;28;90593;-74
2023/09/29 04:12:07;;;;;;;;;;;;;;;;;;4968233;28;90438;-75
2023/09/29 04:14:32;;;;;;;;;;;;;;;;;;4971897;28;90649;-68
2023/09/29 04:16:58;;;;;;;;;;;;;;;;;;4967825;28;90508;-67
2023/09/29 04:19:23;;;;;;;;;;;;;;;;;;4966329;28;90927;-66
2023/09/29 04:21:48;;;;;;;;;;;;;;;;;;4967318;28;89867;-69
2023/09/29 04:24:13;;;;;;;;;;;;;;;;;;4967912;28;89528;-68
2023/09/29 04:26:39;;;;;;;;;;;;;;;;;;4967419;28;89773;-66
2023/09/29 04:29:05;;;;;;;;;;;;;;;;;;4969760;28;89868;-66
2023/09/29 04:31:30;;;;;;;;;;;;;;;;;;4976060;28;90841;-73
2023/09/29 04:33:55;;;;;;;;;;;;;;;;;;4974322;28;89249;-73
2023/09/29 04:36:21;;;;;;;;;;;;;;;;;;4977998;28;89200;-75
2023/09/29 04:38:46;;;;;;;;;;;;;;;;;;4976533;28;89408;-75
2023/09/29 04:41:12;;;;;;;;;;;;;;;;;;4969150;28;89389;-71
2023/09/29 04:43:37;;;;;;;;;;;;;;;;;;4976996;28;90540;-71
2023/09/29 04:46:02;;;;;;;;;;;;;;;;;;4975445;28;90514;-70
2023/09/29 04:48:28;;;;;;;;;;;;;;;;;;4976510;28;89671;-75
2023/09/29 04:50:54;;;;;;;;;;;;;;;;;;4969291;28;90915;-73
2023/09/29 04:53:20;;;;;;;;;;;;;;;;;;4976220;28;89353;-75
2023/09/29 04:55:45;;;;;;;;;;;;;;;;;;4975915;28;89567;-73
2023/09/29 04:58:10;;;;;;;;;;;;;;;;;;4980875;28;90809;-75
2023/09/29 05:00:35;;;;;;;;;;;;;;;;;;4978989;28;89507;-72
2023/09/29 05:03:01;;;;;;;;;;;;;;;;;;4976583;28;89533;-71
2023/09/29 05:05:26;;;;;;;;;;;;;;;;;;4969164;28;90827;-74
2023/09/29 05:07:52;;;;;;;;;;;;;;;;;;4976052;28;89506;-74
2023/09/29 05:10:19;;;;;;;;;;;;;;;;;;4975246;28;89987;-74
2023/09/29 05:12:44;;;;;;;;;;;;;;;;;;4979008;28;89288;-72
2023/09/29 05:15:10;;;;;;;;;;;;;;;;;;4977045;28;89370;-75
2023/09/29 05:17:35;;;;;;;;;;;;;;;;;;4979728;28;89885;-74
2023/09/29 05:20:01;;;;;;;;;;;;;;;;;;4977135;28;90577;-71
2023/09/29 05:22:26;;;;;;;;;;;;;;;;;;4978375;28;90366;-69
2023/09/29 05:24:53;;;;;;;;;;;;;;;;;;4971952;28;89746;-73
2023/09/29 05:27:19;;;;;;;;;;;;;;;;;;4978199;28;89102;-68
2023/09/29 05:29:44;;;;;;;;;;;;;;;;;;4983129;28;89719;-74
2023/09/29 05:32:09;;;;;;;;;;;;;;;;;;4975992;28;89567;-70
2023/09/29 05:34:35;;;;;;;;;;;;;;;;;;4973314;28;90139;-68
2023/09/29 05:37:01;;;;;;;;;;;;;;;;;;4978007;28;90077;-66
2023/09/29 05:39:27;;;;;;;;;;;;;;;;;;4971585;28;90233;-67
2023/09/29 05:41:52;;;;;;;;;;;;;;;;;;4984732;28;89814;-66
2023/09/29 05:44:17;;;;;;;;;;;;;;;;;;4976659;28;90170;-67
2023/09/29 05:46:42;;;;;;;;;;;;;;;;;;4982118;28;89650;-68
2023/09/29 05:49:09;;;;;;;;;;;;;;;;;;4977896;28;89642;-70
2023/09/29 05:51:35;;;;;;;;;;;;;;;;;;4980768;28;90401;-70
2023/09/29 05:54:02;;;;;;;;;;;;;;;;;;4986907;28;89515;-68
2023/09/29 05:56:29;;;;;;;;;;;;;;;;;;4974655;28;89616;-66
2023/09/29 05:58:55;;;;;;;;;;;;;;;;;;4970318;28;90473;-67
2023/09/29 06:01:20;;;;;;;;;;;;;;;;;;4975275;28;89932;-67
2023/09/29 06:03:45;;;;;;;;;;;;;;;;;;4977137;28;89608;-72
2023/09/29 06:06:11;;;;;;;;;;;;;;;;;;4975938;28;89247;-67
2023/09/29 06:08:36;;;;;;;;;;;;;;;;;;4978632;28;90070;-66
2023/09/29 06:11:02;;;;;;;;;;;;;;;;;;4978321;28;91696;-66
2023/09/29 06:13:27;;;;;;;;;;;;;;;;;;4979673;28;89173;-66
2023/09/29 06:15:53;;;;;;;;;;;;;;;;;;4975089;28;89518;-67
2023/09/29 06:18:18;;;;;;;;;;;;;;;;;;4979946;28;89481;-66
2023/09/29 06:20:43;;;;;;;;;;;;;;;;;;4974452;28;90814;-64
2023/09/29 06:23:09;;;;;;;;;;;;;;;;;;4976335;28;89518;-73
2023/09/29 06:25:34;;;;;;;;;;;;;;;;;;4977369;28;89879;-74
2023/09/29 06:27:59;;;;;;;;;;;;;;;;;;4974310;28;89413;-74
2023/09/29 06:30:24;;;;;;;;;;;;;;;;;;4971273;28;89244;-75
2023/09/29 06:32:50;;;;;;;;;;;;;;;;;;4977626;28;90803;-75
2023/09/29 06:35:15;;;;;;;;;;;;;;;;;;4975137;28;89956;-75
2023/09/29 06:37:41;;;;;;;;;;;;;;;;;;4976742;28;89678;-75
2023/09/29 06:40:10;;;;;;;;;;;;;;;;;;4973139;28;89542;-75
2023/09/29 06:42:35;;;;;;;;;;;;;;;;;;5001393;28;92560;-75
2023/09/29 06:45:00;;;;;;;;;;;;;;;;;;4978384;28;89426;-75
2023/09/29 06:47:26;;;;;;;;;;;;;;;;;;4980137;28;89331;-75
2023/09/29 06:49:51;;;;;;;;;;;;;;;;;;4977740;28;89365;-75
2023/09/29 06:52:16;;;;;;;;;;;;;;;;;;4979856;28;89057;-74
2023/09/29 06:54:41;;;;;;;;;;;;;;;;;;4980519;28;89605;-74
2023/09/29 06:57:06;;;;;;;;;;;;;;;;;;4978089;28;89200;-74
2023/09/29 06:59:32;;;;;;;;;;;;;;;;;;4972431;28;89932;-75
2023/09/29 07:01:57;;;;;;;;;;;;;;;;;;4976994;28;92135;-75
2023/09/29 07:04:22;;;;;;;;;;;;;;;;;;4978594;28;89238;-75
2023/09/29 07:06:48;;;;;;;;;;;;;;;;;;4981999;28;89869;-75
2023/09/29 07:09:14;;;;;;;;;;;;;;;;;;4977827;28;90272;-75
2023/09/29 07:11:41;;;;;;;;;;;;;;;;;;4977255;28;90362;-75
2023/09/29 07:14:07;;;;;;;;;;;;;;;;;;4979207;28;90676;-75
2023/09/29 07:16:32;;;;;;;;;;;;;;;;;;4980921;28;89529;-75
2023/09/29 07:18:57;;;;;;;;;;;;;;;;;;4981187;28;89030;-75
2023/09/29 07:21:23;;;;;;;;;;;;;;;;;;4978171;28;89779;-75
2023/09/29 07:23:48;;;;;;;;;;;;;;;;;;4982076;28;89063;-75
2023/09/29 07:26:13;;;;;;;;;;;;;;;;;;4972174;28;89462;-75
2023/09/29 07:28:39;;;;;;;;;;;;;;;;;;4981349;28;90013;-75
2023/09/29 07:31:04;;;;;;;;;;;;;;;;;;4979299;28;90107;-75
2023/09/29 07:33:29;;;;;;;;;;;;;;;;;;4979062;28;90635;-75
2023/09/29 07:35:55;;;;;;;;;;;;;;;;;;4979948;28;89548;-75
2023/09/29 07:38:20;;;;;;;;;;;;;;;;;;4974353;28;89487;-74
2023/09/29 07:40:46;;;;;;;;;;;;;;;;;;4976475;28;90811;-75
2023/09/29 07:43:12;;;;;;;;;;;;;;;;;;4983138;28;89314;-75
2023/09/29 07:45:37;;;;;;;;;;;;;;;;;;4979136;28;89901;-75
2023/09/29 07:48:03;;;;;;;;;;;;;;;;;;4977650;28;90162;-75
2023/09/29 07:50:28;;;;;;;;;;;;;;;;;;4979251;28;90935;-76
2023/09/29 07:52:53;;;;;;;;;;;;;;;;;;4978216;28;90095;-78
2023/09/29 07:55:18;;;;;;;;;;;;;;;;;;4972732;28;89618;-76
2023/09/29 07:57:44;;;;;;;;;;;;;;;;;;4978361;28;89452;-75
2023/09/29 08:00:10;;;;;;;;;;;;;;;;;;4972797;28;89640;-75
2023/09/29 08:02:35;;;;;;;;;;;;;;;;;;4982086;28;89832;-75
2023/09/29 08:05:01;;;;;;;;;;;;;;;;;;4978443;28;90722;-75
2023/09/29 08:07:26;;;;;;;;;;;;;;;;;;4976354;28;89480;-75
2023/09/29 08:09:53;;;;;;;;;;;;;;;;;;4977843;28;92045;-75
2023/09/29 08:12:18;;;;;;;;;;;;;;;;;;4982481;28;89045;-75
2023/09/29 08:14:43;;;;;;;;;;;;;;;;;;4979260;28;89751;-76
2023/09/29 08:17:09;;;;;;;;;;;;;;;;;;4978788;28;89689;-76
2023/09/29 08:19:35;;;;;;;;;;;;;;;;;;4976668;28;89783;-75
2023/09/29 08:22:00;;;;;;;;;;;;;;;;;;4976909;28;89611;-75
2023/09/29 08:24:25;;;;;;;;;;;;;;;;;;4976233;28;89153;-75
2023/09/29 08:26:51;;;;;;;;;;;;;;;;;;4974602;28;92440;-75
2023/09/29 08:29:16;;;;;;;;;;;;;;;;;;4979614;28;89194;-75
2023/09/29 08:31:44;;;;;;;;;;;;;;;;;;4980298;28;89047;-75
2023/09/29 08:34:09;;;;;;;;;;;;;;;;;;4983090;28;89659;-75
2023/09/29 08:36:35;;;;;;;;;;;;;;;;;;4977206;28;89147;-75
2023/09/29 08:39:00;;;;;;;;;;;;;;;;;;4976489;28;89571;-76
2023/09/29 08:41:27;;;;;;;;;;;;;;;;;;4978664;28;90266;-75
2023/09/29 08:43:52;;;;;;;;;;;;;;;;;;4975083;28;89097;-75
2023/09/29 08:46:18;;;;;;;;;;;;;;;;;;4978463;28;89599;-76
2023/09/29 08:48:44;;;;;;;;;;;;;;;;;;4978940;28;89211;-74
2023/09/29 08:51:12;;;;;;;;;;;;;;;;;;4977419;28;89232;-75
2023/09/29 08:53:39;;;;;;;;;;;;;;;;;;4982105;28;89599;-75
2023/09/29 08:56:11;;;;;;;;;;;;;;;;;;4974538;28;89094;-76
2023/09/29 08:58:36;;;;;;;;;;;;;;;;;;4973205;28;89040;-76
2023/09/29 09:01:01;;;;;;;;;;;;;;;;;;4973077;28;89370;-76
2023/09/29 09:03:27;;;;;;;;;;;;;;;;;;4977662;28;89397;-75
2023/09/29 09:05:55;;;;;;;;;;;;;;;;;;4973026;28;89201;-76
2023/09/29 09:08:20;;;;;;;;;;;;;;;;;;4975722;28;89413;-76
2023/09/29 09:10:45;;;;;;;;;;;;;;;;;;4972978;28;89522;-74
2023/09/29 09:13:11;;;;;;;;;;;;;;;;;;4976539;28;90152;-75
2023/09/29 09:15:36;;;;;;;;;;;;;;;;;;4982702;28;89402;-77
2023/09/29 09:18:01;;;;;;;;;;;;;;;;;;4977003;28;89646;-75
2023/09/29 09:20:27;;;;;;;;;;;;;;;;;;4973842;28;90467;-76
2023/09/29 09:23:00;;;;;;;;;;;;;;;;;;4973098;28;89316;-79
2023/09/29 09:25:35;;;;;;;;;;;;;;;;;;4978926;28;89549;-74
2023/09/29 09:28:01;;;;;;;;;;;;;;;;;;4981327;28;89615;-74
2023/09/29 09:30:26;;;;;;;;;;;;;;;;;;4985563;28;89771;-74
2023/09/29 09:32:52;;;;;;;;;;;;;;;;;;4979446;28;90079;-77
2023/09/29 09:35:23;;;;;;;;;;;;;;;;;;4976649;28;91299;-78
2023/09/29 09:37:51;;;;;;;;;;;;;;;;;;4979542;28;89738;-75
2023/09/29 09:40:17;;;;;;;;;;;;;;;;;;4977816;28;90691;-74
2023/09/29 09:42:42;;;;;;;;;;;;;;;;;;4974662;28;89550;-75
2023/09/29 09:45:08;;;;;;;;;;;;;;;;;;4968308;28;90579;-77
2023/09/29 09:47:34;;;;;;;;;;;;;;;;;;4976003;28;90229;-78
2023/09/29 09:50:01;;;;;;;;;;;;;;;;;;4972554;28;90334;-77
2023/09/29 09:52:30;;;;;;;;;;;;;;;;;;4967008;28;89693;-78
2023/09/29 09:54:57;;;;;;;;;;;;;;;;;;4984668;28;89256;-77
2023/09/29 09:57:33;;;;;;;;;;;;;;;;;;4975919;28;89519;-77
2023/09/29 10:00:01;;;;;;;;;;;;;;;;;;4984265;28;90789;-78
2023/09/29 10:02:27;;;;;;;;;;;;;;;;;;4978736;28;89431;-75
2023/09/29 10:04:54;;;;;;;;;;;;;;;;;;4974453;28;90758;-75
2023/09/29 10:07:20;;;;;;;;;;;;;;;;;;4975951;28;90182;-75
2023/09/29 10:09:48;;;;;;;;;;;;;;;;;;4972204;28;90618;-75
2023/09/29 10:12:24;;;;;;;;;;;;;;;;;;4975241;28;89751;-75
2023/09/29 10:14:52;;;;;;;;;;;;;;;;;;4975026;28;89252;-78
2023/09/29 10:17:17;;;;;;;;;;;;;;;;;;4981395;28;89786;-76
2023/09/29 10:19:45;;;;;;;;;;;;;;;;;;4974460;28;90017;-77
2023/09/29 10:22:20;;;;;;;;;;;;;;;;;;4981810;28;89269;-80
2023/09/29 10:24:46;;;;;;;;;;;;;;;;;;4976193;28;89796;-76
2023/09/29 10:27:13;;;;;;;;;;;;;;;;;;4980506;28;90265;-76
2023/09/29 10:29:39;;;;;;;;;;;;;;;;;;4985859;28;90143;-76
2023/09/29 10:32:10;;;;;;;;;;;;;;;;;;4982441;28;89544;-73
2023/09/29 10:34:36;;;;;;;;;;;;;;;;;;4982929;28;90325;-76
2023/09/29 10:37:02;;;;;;;;;;;;;;;;;;4983042;28;89468;-75
2023/09/29 10:39:27;;;;;;;;;;;;;;;;;;4985669;28;91062;-77
2023/09/29 10:41:57;;;;;;;;;;;;;;;;;;4986255;28;89435;-76
2023/09/29 10:44:22;;;;;;;;;;;;;;;;;;4986319;28;89642;-76
2023/09/29 10:46:49;;;;;;;;;;;;;;;;;;4983738;28;90098;-78
2023/09/29 10:49:15;;;;;;;;;;;;;;;;;;4977523;28;89617;-77
2023/09/29 10:51:40;;;;;;;;;;;;;;;;;;4983130;28;90670;-78
2023/09/29 10:54:06;;;;;;;;;;;;;;;;;;4976808;28;90001;-77
2023/09/29 10:56:33;;;;;;;;;;;;;;;;;;4977084;28;89758;-75
2023/09/29 10:58:59;;;;;;;;;;;;;;;;;;4979177;28;92392;-77
2023/09/29 11:01:31;;;;;;;;;;;;;;;;;;4985673;28;90339;-77
2023/09/29 11:03:56;;;;;;;;;;;;;;;;;;4984662;28;89178;-77
2023/09/29 11:06:22;;;;;;;;;;;;;;;;;;4977686;28;90087;-77
2023/09/29 11:09:07;;;;;;;;;;;;;;;;;;4979906;28;89085;-76
2023/09/29 11:11:33;;;;;;;;;;;;;;;;;;4985475;28;91068;-79
2023/09/29 11:13:58;;;;;;;;;;;;;;;;;;4978682;28;92555;-79
2023/09/29 11:16:26;;;;;;;;;;;;;;;;;;4979256;28;90125;-76
2023/09/29 11:18:56;;;;;;;;;;;;;;;;;;4984654;28;91893;-78
2023/09/29 11:21:34;;;;;;;;;;;;;;;;;;4984604;28;89646;-79
2023/09/29 11:24:07;;;;;;;;;;;;;;;;;;4976413;28;91159;-73
2023/09/29 11:26:32;;;;;;;;;;;;;;;;;;4989202;28;92262;-75
2023/09/29 11:28:58;;;;;;;;;;;;;;;;;;4980145;28;90014;-78
2023/09/29 11:31:24;;;;;;;;;;;;;;;;;;4983494;28;89489;-73
2023/09/29 11:33:50;;;;;;;;;;;;;;;;;;4984365;28;89540;-78
2023/09/29 11:36:21;;;;;;;;;;;;;;;;;;4977774;28;90389;-77
2023/09/29 11:38:47;;;;;;;;;;;;;;;;;;4975843;28;89556;-82
2023/09/29 11:41:12;;;;;;;;;;;;;;;;;;4976015;28;89319;-80
2023/09/29 11:43:38;;;;;;;;;;;;;;;;;;4978367;28;89814;-76
2023/09/29 11:46:04;;;;;;;;;;;;;;;;;;4977262;28;90163;-78
2023/09/29 11:48:29;;;;;;;;;;;;;;;;;;4981912;28;90235;-77
2023/09/29 11:50:54;;;;;;;;;;;;;;;;;;4978136;28;90202;-75
2023/09/29 11:53:20;;;;;;;;;;;;;;;;;;4979309;28;90476;-75
2023/09/29 11:55:45;;;;;;;;;;;;;;;;;;4980383;28;90451;-73
2023/09/29 11:58:11;;;;;;;;;;;;;;;;;;4974217;28;90932;-74
2023/09/29 12:00:36;;;;;;;;;;;;;;;;;;4980285;28;89076;-77
2023/09/29 12:03:05;;;;;;;;;;;;;;;;;;4976818;28;88947;-78
2023/09/29 12:05:31;;;;;;;;;;;;;;;;;;4976706;28;90784;-78
2023/09/29 12:07:56;;;;;;;;;;;;;;;;;;4979262;28;89338;-76
2023/09/29 12:10:21;;;;;;;;;;;;;;;;;;5013091;28;90605;-74
2023/09/29 12:12:46;;;;;;;;;;;;;;;;;;4977432;28;89248;-73
2023/09/29 12:15:14;;;;;;;;;;;;;;;;;;4980595;28;90589;-75
2023/09/29 12:17:39;;;;;;;;;;;;;;;;;;4977766;28;90685;-76
2023/09/29 12:20:08;;;;;;;;;;;;;;;;;;4979042;28;89233;-77
2023/09/29 12:22:34;;;;;;;;;;;;;;;;;;4980013;28;90054;-77
2023/09/29 12:24:59;;;;;;;;;;;;;;;;;;4975988;28;90770;-77
2023/09/29 12:27:25;;;;;;;;;;;;;;;;;;4972954;28;89659;-80
2023/09/29 12:29:50;;;;;;;;;;;;;;;;;;4972640;28;89497;-77
2023/09/29 12:32:15;;;;;;;;;;;;;;;;;;4980947;28;89207;-78
2023/09/29 12:34:41;;;;;;;;;;;;;;;;;;4979002;28;89238;-74
2023/09/29 12:37:08;;;;;;;;;;;;;;;;;;4979785;28;90874;-76
2023/09/29 12:39:33;;;;;;;;;;;;;;;;;;4978290;28;89322;-78
2023/09/29 12:41:58;;;;;;;;;;;;;;;;;;4976272;28;90731;-78
2023/09/29 12:44:23;;;;;;;;;;;;;;;;;;4979952;28;89659;-75
2023/09/29 12:46:50;;;;;;;;;;;;;;;;;;4982499;28;89332;-78
2023/09/29 12:49:15;;;;;;;;;;;;;;;;;;4979595;28;90669;-77
2023/09/29 12:51:41;;;;;;;;;;;;;;;;;;4985357;28;92407;-78
2023/09/29 12:54:06;;;;;;;;;;;;;;;;;;4979127;28;89335;-75
2023/09/29 12:56:32;;;;;;;;;;;;;;;;;;4984085;28;90653;-76
2023/09/29 12:58:57;;;;;;;;;;;;;;;;;;4975193;28;89789;-80
2023/09/29 13:01:23;;;;;;;;;;;;;;;;;;4980380;28;89176;-79
2023/09/29 13:03:48;;;;;;;;;;;;;;;;;;4973233;28;89796;-78
2023/09/29 13:06:13;;;;;;;;;;;;;;;;;;4982738;28;90142;-79
2023/09/29 13:08:39;;;;;;;;;;;;;;;;;;4981000;28;89413;-79
2023/09/29 13:11:04;;;;;;;;;;;;;;;;;;4983803;28;89579;-78
2023/09/29 13:13:30;;;;;;;;;;;;;;;;;;4979442;28;89179;-78
2023/09/29 13:15:55;;;;;;;;;;;;;;;;;;4980868;28;90651;-79
2023/09/29 13:18:21;;;;;;;;;;;;;;;;;;4983208;28;89954;-79
2023/09/29 13:20:48;;;;;;;;;;;;;;;;;;4979606;28;90980;-79
2023/09/29 13:23:13;;;;;;;;;;;;;;;;;;4971885;28;89537;-74
2023/09/29 13:25:39;;;;;;;;;;;;;;;;;;4972566;28;91763;-78
2023/09/29 13:28:04;;;;;;;;;;;;;;;;;;4974371;28;89382;-76
2023/09/29 13:30:30;;;;;;;;;;;;;;;;;;4972853;28;89789;-76
2023/09/29 13:32:55;;;;;;;;;;;;;;;;;;4978284;28;89975;-77
2023/09/29 13:35:21;;;;;;;;;;;;;;;;;;4972205;28;89531;-77
2023/09/29 13:37:46;;;;;;;;;;;;;;;;;;4974613;28;90317;-72
2023/09/29 13:40:12;;;;;;;;;;;;;;;;;;4974054;28;90365;-72
2023/09/29 13:42:37;;;;;;;;;;;;;;;;;;4974176;28;89992;-72
2023/09/29 13:45:03;;;;;;;;;;;;;;;;;;4973898;28;89767;-73
2023/09/29 13:47:28;;;;;;;;;;;;;;;;;;4975482;28;89642;-72
2023/09/29 13:49:55;;;;;;;;;;;;;;;;;;4985566;28;89504;-71
2023/09/29 13:52:20;;;;;;;;;;;;;;;;;;4977385;28;89487;-71
2023/09/29 13:54:48;;;;;;;;;;;;;;;;;;4967450;28;89014;-71
2023/09/29 13:57:14;;;;;;;;;;;;;;;;;;4979916;28;90869;-71
2023/09/29 13:59:39;;;;;;;;;;;;;;;;;;4975274;28;89780;-73
2023/09/29 14:02:07;;;;;;;;;;;;;;;;;;4975218;28;89772;-74
2023/09/29 14:04:37;;;;;;;;;;;;;;;;;;4980240;28;89474;-74
2023/09/29 14:07:03;;;;;;;;;;;;;;;;;;4977265;28;89289;-70
2023/09/29 14:09:28;;;;;;;;;;;;;;;;;;4977156;28;89484;-71
2023/09/29 14:11:54;;;;;;;;;;;;;;;;;;4974511;28;90306;-72
2023/09/29 14:14:19;;;;;;;;;;;;;;;;;;4977401;28;89517;-74
2023/09/29 14:16:45;;;;;;;;;;;;;;;;;;4977291;28;89648;-74
2023/09/29 14:19:10;;;;;;;;;;;;;;;;;;5012635;28;91022;-73
2023/09/29 14:21:36;;;;;;;;;;;;;;;;;;4968514;28;90614;-75
2023/09/29 14:24:01;;;;;;;;;;;;;;;;;;4976041;28;90137;-75
2023/09/29 14:26:26;;;;;;;;;;;;;;;;;;4976364;28;88885;-75
2023/09/29 14:28:52;;;;;;;;;;;;;;;;;;4975920;28;89490;-74
2023/09/29 14:31:17;;;;;;;;;;;;;;;;;;4978748;28;89222;-75
2023/09/29 14:33:43;;;;;;;;;;;;;;;;;;4974992;28;89438;-71
2023/09/29 14:36:08;;;;;;;;;;;;;;;;;;4966998;28;89413;-71
2023/09/29 14:38:33;;;;;;;;;;;;;;;;;;4979905;28;90211;-72
2023/09/29 14:40:59;;;;;;;;;;;;;;;;;;4976896;28;89694;-72
2023/09/29 14:43:24;;;;;;;;;;;;;;;;;;4974527;28;89130;-74
2023/09/29 14:45:50;;;;;;;;;;;;;;;;;;4975208;28;89634;-71
2023/09/29 14:48:16;;;;;;;;;;;;;;;;;;4974912;28;89637;-71
2023/09/29 14:50:42;;;;;;;;;;;;;;;;;;4974652;28;90455;-72
2023/09/29 14:53:07;;;;;;;;;;;;;;;;;;4976055;28;89724;-72
2023/09/29 14:55:35;;;;;;;;;;;;;;;;;;4976537;28;89644;-73
2023/09/29 14:58:00;;;;;;;;;;;;;;;;;;4974510;28;89689;-74
2023/09/29 15:00:26;;;;;;;;;;;;;;;;;;4973604;28;89648;-75
2023/09/29 15:02:51;;;;;;;;;;;;;;;;;;4972866;28;90859;-75
2023/09/29 15:05:17;;;;;;;;;;;;;;;;;;4975293;28;90256;-75
2023/09/29 15:07:43;;;;;;;;;;;;;;;;;;4979473;28;89484;-74
2023/09/29 15:10:08;;;;;;;;;;;;;;;;;;4978659;28;89194;-74
2023/09/29 15:12:33;;;;;;;;;;;;;;;;;;4979347;28;89707;-71
2023/09/29 15:14:59;;;;;;;;;;;;;;;;;;4979681;28;89574;-70
2023/09/29 15:17:24;;;;;;;;;;;;;;;;;;4980625;28;89478;-70
2023/09/29 15:19:51;;;;;;;;;;;;;;;;;;4978548;28;89028;-70
2023/09/29 15:22:19;;;;;;;;;;;;;;;;;;4980558;28;90914;-70
2023/09/29 15:24:44;;;;;;;;;;;;;;;;;;4977688;28;89468;-71
2023/09/29 15:27:10;;;;;;;;;;;;;;;;;;4984450;28;89393;-71
2023/09/29 15:29:35;;;;;;;;;;;;;;;;;;4981357;28;91201;-73
2023/09/29 15:32:00;;;;;;;;;;;;;;;;;;4981775;28;89516;-73
2023/09/29 15:34:25;;;;;;;;;;;;;;;;;;4979683;28;89505;-73
2023/09/29 15:36:51;;;;;;;;;;;;;;;;;;4979405;28;89763;-74
2023/09/29 15:39:16;;;;;;;;;;;;;;;;;;4977472;28;89923;-71
2023/09/29 15:41:41;;;;;;;;;;;;;;;;;;4977307;28;90843;-72
2023/09/29 15:44:07;;;;;;;;;;;;;;;;;;4982465;28;90370;-71
2023/09/29 15:46:32;;;;;;;;;;;;;;;;;;4980573;28;90673;-71
2023/09/29 15:48:57;;;;;;;;;;;;;;;;;;4980388;28;90334;-74
2023/09/29 15:51:22;;;;;;;;;;;;;;;;;;4978315;28;89641;-75
2023/09/29 15:53:48;;;;;;;;;;;;;;;;;;4977078;28;90709;-76
2023/09/29 15:56:13;;;;;;;;;;;;;;;;;;4979848;28;89269;-76
2023/09/29 15:58:41;;;;;;;;;;;;;;;;;;4980906;28;89049;-72
2023/09/29 16:01:08;;;;;;;;;;;;;;;;;;4974408;28;90627;-71
2023/09/29 16:03:34;;;;;;;;;;;;;;;;;;4979935;28;89635;-74
2023/09/29 16:06:06;;;;;;;;;;;;;;;;;;4983820;28;89249;-75
2023/09/29 16:08:32;;;;;;;;;;;;;;;;;;4982973;28;91891;-76
2023/09/29 16:10:58;;;;;;;;;;;;;;;;;;4979890;28;89688;-73
2023/09/29 16:13:24;;;;;;;;;;;;;;;;;;4978494;28;91532;-72
2023/09/29 16:15:49;;;;;;;;;;;;;;;;;;4984692;28;90200;-72
2023/09/29 16:18:14;;;;;;;;;;;;;;;;;;4977438;28;89393;-74
2023/09/29 16:20:40;;;;;;;;;;;;;;;;;;4981151;28;90604;-75
2023/09/29 16:23:05;;;;;;;;;;;;;;;;;;4977014;28;89193;-77
2023/09/29 16:25:31;;;;;;;;;;;;;;;;;;4976619;28;90891;-73
2023/09/29 16:27:57;;;;;;;;;;;;;;;;;;4978601;28;88974;-75
2023/09/29 16:30:22;;;;;;;;;;;;;;;;;;4973240;28;90124;-72
2023/09/29 16:32:47;;;;;;;;;;;;;;;;;;4970658;28;100513;-73
2023/09/29 16:35:12;;;;;;;;;;;;;;;;;;4978195;28;89459;-75
2023/09/29 16:37:38;;;;;;;;;;;;;;;;;;4980227;28;89089;-72